sensor_id;sensor_type;location;lat;lon;timestamp;temperature;humidity
5560;DHT22;2803;47.916;8.074;2023-12-22T00:02:12;7.40;99.90
5560;DHT22;2803;47.916;8.074;2023-12-22T00:04:39;7.30;99.90
5560;DHT22;2803;47.916;8.074;2023-12-22T00:07:05;7.40;99.90
5560;DHT22;2803;47.916;8.074;2023-12-22T00:09:32;7.30;99.90
5560;DHT22;2803;47.916;8.074;2023-12-22T00:11:58;7.20;99.90
5560;DHT22;2803;47.916;8.074;2023-12-22T00:14:25;7.30;99.90
5560;DHT22;2803;47.916;8.074;2023-12-22T00:16:53;7.00;99.90
5560;DHT22;2803;47.916;8.074;2023-12-22T00:19:19;7.10;99.90
5560;DHT22;2803;47.916;8.074;2023-12-22T00:21:46;6.80;99.90
5560;DHT22;2803;47.916;8.074;2023-12-22T00:24:12;7.10;99.90
5560;DHT22;2803;47.916;8.074;2023-12-22T00:26:39;7.40;99.90
5560;DHT22;2803;47.916;8.074;2023-12-22T00:29:06;7.80;99.90
5560;DHT22;2803;47.916;8.074;2023-12-22T00:31:33;7.40;99.90
5560;DHT22;2803;47.916;8.074;2023-12-22T00:34:01;7.30;99.90
5560;DHT22;2803;47.916;8.074;2023-12-22T00:36:27;7.50;99.90
5560;DHT22;2803;47.916;8.074;2023-12-22T00:38:54;7.70;99.90
5560;DHT22;2803;47.916;8.074;2023-12-22T00:41:20;7.80;99.90
5560;DHT22;2803;47.916;8.074;2023-12-22T00:43:47;7.60;99.90
5560;DHT22;2803;47.916;8.074;2023-12-22T00:46:14;7.40;99.90
5560;DHT22;2803;47.916;8.074;2023-12-22T00:48:41;7.40;99.90
5560;DHT22;2803;47.916;8.074;2023-12-22T00:51:08;7.40;99.90
5560;DHT22;2803;47.916;8.074;2023-12-22T00:53:35;7.40;99.90
5560;DHT22;2803;47.916;8.074;2023-12-22T00:56:02;7.70;99.90
5560;DHT22;2803;47.916;8.074;2023-12-22T00:58:29;7.70;99.90
5560;DHT22;2803;47.916;8.074;2023-12-22T01:00:56;7.50;99.90
5560;DHT22;2803;47.916;8.074;2023-12-22T01:03:22;7.70;99.90
5560;DHT22;2803;47.916;8.074;2023-12-22T01:05:49;7.80;99.90
5560;DHT22;2803;47.916;8.074;2023-12-22T01:08:17;7.60;99.90
5560;DHT22;2803;47.916;8.074;2023-12-22T01:10:43;7.90;99.90
5560;DHT22;2803;47.916;8.074;2023-12-22T01:13:09;7.40;99.90
5560;DHT22;2803;47.916;8.074;2023-12-22T01:15:35;7.10;99.90
5560;DHT22;2803;47.916;8.074;2023-12-22T01:18:02;6.70;99.90
5560;DHT22;2803;47.916;8.074;2023-12-22T01:20:29;6.60;99.90
5560;DHT22;2803;47.916;8.074;2023-12-22T01:22:55;6.80;99.90
5560;DHT22;2803;47.916;8.074;2023-12-22T01:25:23;7.00;99.90
5560;DHT22;2803;47.916;8.074;2023-12-22T01:27:50;7.30;99.90
5560;DHT22;2803;47.916;8.074;2023-12-22T01:30:17;7.30;99.90
5560;DHT22;2803;47.916;8.074;2023-12-22T01:32:44;7.50;99.90
5560;DHT22;2803;47.916;8.074;2023-12-22T01:35:10;7.80;99.90
5560;DHT22;2803;47.916;8.074;2023-12-22T01:37:37;8.00;99.90
5560;DHT22;2803;47.916;8.074;2023-12-22T01:40:04;7.70;99.90
5560;DHT22;2803;47.916;8.074;2023-12-22T01:42:32;7.70;99.90
5560;DHT22;2803;47.916;8.074;2023-12-22T01:44:59;7.90;99.90
5560;DHT22;2803;47.916;8.074;2023-12-22T01:47:26;7.90;99.90
5560;DHT22;2803;47.916;8.074;2023-12-22T01:49:53;7.50;99.90
5560;DHT22;2803;47.916;8.074;2023-12-22T01:52:19;7.70;99.90
5560;DHT22;2803;47.916;8.074;2023-12-22T01:54:46;7.70;99.90
5560;DHT22;2803;47.916;8.074;2023-12-22T01:57:14;7.90;99.90
5560;DHT22;2803;47.916;8.074;2023-12-22T01:59:44;7.50;99.90
5560;DHT22;2803;47.916;8.074;2023-12-22T02:02:11;7.50;99.90
5560;DHT22;2803;47.916;8.074;2023-12-22T02:04:37;7.60;99.90
5560;DHT22;2803;47.916;8.074;2023-12-22T02:07:06;7.10;99.90
5560;DHT22;2803;47.916;8.074;2023-12-22T02:09:35;7.10;99.90
5560;DHT22;2803;47.916;8.074;2023-12-22T02:12:03;6.80;99.90
5560;DHT22;2803;47.916;8.074;2023-12-22T02:14:29;6.90;99.90
5560;DHT22;2803;47.916;8.074;2023-12-22T02:17:06;6.80;99.90
5560;DHT22;2803;47.916;8.074;2023-12-22T02:19:41;6.60;99.90
5560;DHT22;2803;47.916;8.074;2023-12-22T02:22:10;6.70;99.90
5560;DHT22;2803;47.916;8.074;2023-12-22T02:24:38;6.80;99.90
5560;DHT22;2803;47.916;8.074;2023-12-22T02:27:08;7.40;99.90
5560;DHT22;2803;47.916;8.074;2023-12-22T02:29:42;7.30;99.90
5560;DHT22;2803;47.916;8.074;2023-12-22T02:32:14;7.30;99.90
5560;DHT22;2803;47.916;8.074;2023-12-22T02:34:43;7.30;99.90
5560;DHT22;2803;47.916;8.074;2023-12-22T02:37:12;6.90;99.90
5560;DHT22;2803;47.916;8.074;2023-12-22T02:39:41;6.90;99.90
5560;DHT22;2803;47.916;8.074;2023-12-22T02:42:09;7.00;99.90
5560;DHT22;2803;47.916;8.074;2023-12-22T02:44:36;7.00;99.90
5560;DHT22;2803;47.916;8.074;2023-12-22T02:47:04;6.60;99.90
5560;DHT22;2803;47.916;8.074;2023-12-22T02:49:30;6.40;99.90
5560;DHT22;2803;47.916;8.074;2023-12-22T02:51:57;6.00;99.90
5560;DHT22;2803;47.916;8.074;2023-12-22T02:54:23;5.90;99.90
5560;DHT22;2803;47.916;8.074;2023-12-22T02:56:51;6.00;99.90
5560;DHT22;2803;47.916;8.074;2023-12-22T02:59:18;5.90;99.90
5560;DHT22;2803;47.916;8.074;2023-12-22T03:01:44;5.80;99.90
5560;DHT22;2803;47.916;8.074;2023-12-22T03:04:11;6.10;99.90
5560;DHT22;2803;47.916;8.074;2023-12-22T03:06:38;6.40;99.90
5560;DHT22;2803;47.916;8.074;2023-12-22T03:09:04;6.70;99.90
5560;DHT22;2803;47.916;8.074;2023-12-22T03:11:31;6.60;99.90
5560;DHT22;2803;47.916;8.074;2023-12-22T03:13:59;6.40;99.90
5560;DHT22;2803;47.916;8.074;2023-12-22T03:16:25;6.60;99.90
5560;DHT22;2803;47.916;8.074;2023-12-22T03:18:52;6.60;99.90
5560;DHT22;2803;47.916;8.074;2023-12-22T03:21:19;6.50;99.90
5560;DHT22;2803;47.916;8.074;2023-12-22T03:23:45;6.60;99.90
5560;DHT22;2803;47.916;8.074;2023-12-22T03:26:12;6.60;99.90
5560;DHT22;2803;47.916;8.074;2023-12-22T03:28:39;6.60;99.90
5560;DHT22;2803;47.916;8.074;2023-12-22T03:31:07;6.80;99.90
5560;DHT22;2803;47.916;8.074;2023-12-22T03:33:33;6.70;99.90
5560;DHT22;2803;47.916;8.074;2023-12-22T03:36:00;6.90;99.90
5560;DHT22;2803;47.916;8.074;2023-12-22T03:38:27;7.00;99.90
5560;DHT22;2803;47.916;8.074;2023-12-22T03:40:53;6.90;99.90
5560;DHT22;2803;47.916;8.074;2023-12-22T03:43:20;6.90;99.90
5560;DHT22;2803;47.916;8.074;2023-12-22T03:45:46;6.70;99.90
5560;DHT22;2803;47.916;8.074;2023-12-22T03:48:14;6.70;99.90
5560;DHT22;2803;47.916;8.074;2023-12-22T03:50:41;6.50;99.90
5560;DHT22;2803;47.916;8.074;2023-12-22T03:53:07;6.80;99.90
5560;DHT22;2803;47.916;8.074;2023-12-22T03:55:34;6.40;99.90
5560;DHT22;2803;47.916;8.074;2023-12-22T03:58:00;6.30;99.90
5560;DHT22;2803;47.916;8.074;2023-12-22T04:00:29;6.20;99.90
5560;DHT22;2803;47.916;8.074;2023-12-22T04:02:55;6.20;99.90
5560;DHT22;2803;47.916;8.074;2023-12-22T04:05:23;6.10;99.90
5560;DHT22;2803;47.916;8.074;2023-12-22T04:07:51;6.40;99.90
5560;DHT22;2803;47.916;8.074;2023-12-22T04:10:17;6.50;99.90
5560;DHT22;2803;47.916;8.074;2023-12-22T04:12:44;6.60;99.90
5560;DHT22;2803;47.916;8.074;2023-12-22T04:15:10;6.90;99.90
5560;DHT22;2803;47.916;8.074;2023-12-22T04:17:38;6.70;99.90
5560;DHT22;2803;47.916;8.074;2023-12-22T04:20:06;6.80;99.90
5560;DHT22;2803;47.916;8.074;2023-12-22T04:22:34;6.50;99.90
5560;DHT22;2803;47.916;8.074;2023-12-22T04:25:00;6.30;99.90
5560;DHT22;2803;47.916;8.074;2023-12-22T04:27:27;6.50;99.90
5560;DHT22;2803;47.916;8.074;2023-12-22T04:29:54;6.40;99.90
5560;DHT22;2803;47.916;8.074;2023-12-22T04:32:20;6.30;99.90
5560;DHT22;2803;47.916;8.074;2023-12-22T04:34:47;6.40;99.90
5560;DHT22;2803;47.916;8.074;2023-12-22T04:37:13;6.30;99.90
5560;DHT22;2803;47.916;8.074;2023-12-22T04:39:41;6.40;99.90
5560;DHT22;2803;47.916;8.074;2023-12-22T04:42:08;6.70;99.90
5560;DHT22;2803;47.916;8.074;2023-12-22T04:44:34;6.40;99.90
5560;DHT22;2803;47.916;8.074;2023-12-22T04:47:01;6.50;99.90
5560;DHT22;2803;47.916;8.074;2023-12-22T04:49:27;6.80;99.90
5560;DHT22;2803;47.916;8.074;2023-12-22T04:51:54;6.50;99.90
5560;DHT22;2803;47.916;8.074;2023-12-22T04:54:20;6.50;99.90
5560;DHT22;2803;47.916;8.074;2023-12-22T04:56:48;6.50;99.90
5560;DHT22;2803;47.916;8.074;2023-12-22T04:59:15;6.60;99.90
5560;DHT22;2803;47.916;8.074;2023-12-22T05:01:41;6.90;99.90
5560;DHT22;2803;47.916;8.074;2023-12-22T05:04:10;7.10;99.90
5560;DHT22;2803;47.916;8.074;2023-12-22T05:06:37;7.20;99.90
5560;DHT22;2803;47.916;8.074;2023-12-22T05:09:04;7.10;99.90
5560;DHT22;2803;47.916;8.074;2023-12-22T05:11:30;7.30;99.90
5560;DHT22;2803;47.916;8.074;2023-12-22T05:13:58;7.40;99.90
5560;DHT22;2803;47.916;8.074;2023-12-22T05:16:25;7.90;99.90
5560;DHT22;2803;47.916;8.074;2023-12-22T05:18:51;7.80;99.90
5560;DHT22;2803;47.916;8.074;2023-12-22T05:21:18;7.40;99.90
5560;DHT22;2803;47.916;8.074;2023-12-22T05:23:44;6.50;99.90
5560;DHT22;2803;47.916;8.074;2023-12-22T05:26:16;6.10;99.90
5560;DHT22;2803;47.916;8.074;2023-12-22T05:28:43;6.30;99.90
5560;DHT22;2803;47.916;8.074;2023-12-22T05:31:11;6.50;99.90
5560;DHT22;2803;47.916;8.074;2023-12-22T05:33:38;6.60;99.90
5560;DHT22;2803;47.916;8.074;2023-12-22T05:36:05;6.40;99.90
5560;DHT22;2803;47.916;8.074;2023-12-22T05:38:31;6.30;99.90
5560;DHT22;2803;47.916;8.074;2023-12-22T05:40:58;6.40;99.90
5560;DHT22;2803;47.916;8.074;2023-12-22T05:43:24;6.60;99.90
5560;DHT22;2803;47.916;8.074;2023-12-22T05:45:51;6.60;99.90
5560;DHT22;2803;47.916;8.074;2023-12-22T05:48:19;6.50;99.90
5560;DHT22;2803;47.916;8.074;2023-12-22T05:50:47;6.30;99.90
5560;DHT22;2803;47.916;8.074;2023-12-22T05:53:14;6.20;99.90
5560;DHT22;2803;47.916;8.074;2023-12-22T05:55:40;6.20;99.90
5560;DHT22;2803;47.916;8.074;2023-12-22T05:58:07;6.50;99.90
5560;DHT22;2803;47.916;8.074;2023-12-22T06:00:34;6.00;99.90
5560;DHT22;2803;47.916;8.074;2023-12-22T06:03:01;6.20;99.90
5560;DHT22;2803;47.916;8.074;2023-12-22T06:05:29;6.20;99.90
5560;DHT22;2803;47.916;8.074;2023-12-22T06:07:56;6.30;99.90
5560;DHT22;2803;47.916;8.074;2023-12-22T06:10:23;6.40;99.90
5560;DHT22;2803;47.916;8.074;2023-12-22T06:12:49;6.20;99.90
5560;DHT22;2803;47.916;8.074;2023-12-22T06:15:16;6.00;99.90
5560;DHT22;2803;47.916;8.074;2023-12-22T06:17:43;6.20;99.90
5560;DHT22;2803;47.916;8.074;2023-12-22T06:20:10;6.20;99.90
5560;DHT22;2803;47.916;8.074;2023-12-22T06:22:38;6.40;99.90
5560;DHT22;2803;47.916;8.074;2023-12-22T06:25:05;6.60;99.90
5560;DHT22;2803;47.916;8.074;2023-12-22T06:27:32;6.40;99.90
5560;DHT22;2803;47.916;8.074;2023-12-22T06:29:59;6.30;99.90
5560;DHT22;2803;47.916;8.074;2023-12-22T06:32:26;6.50;99.90
5560;DHT22;2803;47.916;8.074;2023-12-22T06:34:52;6.60;99.90
5560;DHT22;2803;47.916;8.074;2023-12-22T06:37:19;6.30;99.90
5560;DHT22;2803;47.916;8.074;2023-12-22T06:39:47;6.40;99.90
5560;DHT22;2803;47.916;8.074;2023-12-22T06:42:13;6.40;99.90
5560;DHT22;2803;47.916;8.074;2023-12-22T06:44:41;6.70;99.90
5560;DHT22;2803;47.916;8.074;2023-12-22T06:47:09;6.60;99.90
5560;DHT22;2803;47.916;8.074;2023-12-22T06:49:35;6.40;99.90
5560;DHT22;2803;47.916;8.074;2023-12-22T06:52:02;6.50;99.90
5560;DHT22;2803;47.916;8.074;2023-12-22T06:54:29;6.60;99.90
5560;DHT22;2803;47.916;8.074;2023-12-22T06:56:56;7.00;99.90
5560;DHT22;2803;47.916;8.074;2023-12-22T06:59:23;6.70;99.90
5560;DHT22;2803;47.916;8.074;2023-12-22T07:01:49;6.80;99.90
5560;DHT22;2803;47.916;8.074;2023-12-22T07:04:16;6.60;99.90
5560;DHT22;2803;47.916;8.074;2023-12-22T07:06:44;6.60;99.90
5560;DHT22;2803;47.916;8.074;2023-12-22T07:09:31;6.60;99.90
5560;DHT22;2803;47.916;8.074;2023-12-22T07:11:59;6.80;99.90
5560;DHT22;2803;47.916;8.074;2023-12-22T07:14:26;6.50;99.90
5560;DHT22;2803;47.916;8.074;2023-12-22T07:16:53;6.40;99.90
5560;DHT22;2803;47.916;8.074;2023-12-22T07:19:20;6.10;99.90
5560;DHT22;2803;47.916;8.074;2023-12-22T07:21:46;6.30;99.90
5560;DHT22;2803;47.916;8.074;2023-12-22T07:24:13;6.70;99.90
5560;DHT22;2803;47.916;8.074;2023-12-22T07:26:41;7.00;99.90
5560;DHT22;2803;47.916;8.074;2023-12-22T07:29:10;7.00;99.90
5560;DHT22;2803;47.916;8.074;2023-12-22T07:31:37;6.80;99.90
5560;DHT22;2803;47.916;8.074;2023-12-22T07:34:04;6.80;99.90
5560;DHT22;2803;47.916;8.074;2023-12-22T07:36:30;6.50;99.90
5560;DHT22;2803;47.916;8.074;2023-12-22T07:38:57;6.60;99.90
5560;DHT22;2803;47.916;8.074;2023-12-22T07:41:24;6.80;99.90
5560;DHT22;2803;47.916;8.074;2023-12-22T07:43:51;6.70;99.90
5560;DHT22;2803;47.916;8.074;2023-12-22T07:46:19;6.60;99.90
5560;DHT22;2803;47.916;8.074;2023-12-22T07:48:47;6.70;99.90
5560;DHT22;2803;47.916;8.074;2023-12-22T07:51:14;6.60;99.90
5560;DHT22;2803;47.916;8.074;2023-12-22T07:53:40;6.60;99.90
5560;DHT22;2803;47.916;8.074;2023-12-22T07:56:07;6.70;99.90
5560;DHT22;2803;47.916;8.074;2023-12-22T07:58:35;6.60;99.90
5560;DHT22;2803;47.916;8.074;2023-12-22T08:01:03;6.50;99.90
5560;DHT22;2803;47.916;8.074;2023-12-22T08:03:32;6.70;99.90
5560;DHT22;2803;47.916;8.074;2023-12-22T08:05:58;6.60;99.90
5560;DHT22;2803;47.916;8.074;2023-12-22T08:08:25;6.70;99.90
5560;DHT22;2803;47.916;8.074;2023-12-22T08:10:52;6.80;99.90
5560;DHT22;2803;47.916;8.074;2023-12-22T08:13:18;6.80;99.90
5560;DHT22;2803;47.916;8.074;2023-12-22T08:15:45;7.00;99.90
5560;DHT22;2803;47.916;8.074;2023-12-22T08:18:11;7.20;99.90
5560;DHT22;2803;47.916;8.074;2023-12-22T08:20:39;7.30;99.90
5560;DHT22;2803;47.916;8.074;2023-12-22T08:23:06;7.50;99.90
5560;DHT22;2803;47.916;8.074;2023-12-22T08:25:32;7.80;99.90
5560;DHT22;2803;47.916;8.074;2023-12-22T08:27:58;7.60;99.90
5560;DHT22;2803;47.916;8.074;2023-12-22T08:30:26;7.10;99.90
5560;DHT22;2803;47.916;8.074;2023-12-22T08:32:52;6.90;99.90
5560;DHT22;2803;47.916;8.074;2023-12-22T08:35:19;6.90;99.90
5560;DHT22;2803;47.916;8.074;2023-12-22T08:37:47;6.90;99.90
5560;DHT22;2803;47.916;8.074;2023-12-22T08:40:14;7.00;99.90
5560;DHT22;2803;47.916;8.074;2023-12-22T08:42:40;6.90;99.90
5560;DHT22;2803;47.916;8.074;2023-12-22T08:45:07;7.00;99.90
5560;DHT22;2803;47.916;8.074;2023-12-22T08:47:34;7.10;99.90
5560;DHT22;2803;47.916;8.074;2023-12-22T08:50:00;7.00;99.90
5560;DHT22;2803;47.916;8.074;2023-12-22T08:52:29;6.90;99.90
5560;DHT22;2803;47.916;8.074;2023-12-22T08:54:57;7.10;99.90
5560;DHT22;2803;47.916;8.074;2023-12-22T08:57:23;7.50;99.90
5560;DHT22;2803;47.916;8.074;2023-12-22T08:59:50;7.30;99.90
5560;DHT22;2803;47.916;8.074;2023-12-22T09:02:17;7.20;99.90
5560;DHT22;2803;47.916;8.074;2023-12-22T09:04:43;7.00;99.90
5560;DHT22;2803;47.916;8.074;2023-12-22T09:07:10;7.00;99.90
5560;DHT22;2803;47.916;8.074;2023-12-22T09:09:36;6.90;99.90
5560;DHT22;2803;47.916;8.074;2023-12-22T09:12:04;6.70;99.90
5560;DHT22;2803;47.916;8.074;2023-12-22T09:14:31;6.90;99.90
5560;DHT22;2803;47.916;8.074;2023-12-22T09:16:58;7.00;99.90
5560;DHT22;2803;47.916;8.074;2023-12-22T09:19:24;6.80;99.90
5560;DHT22;2803;47.916;8.074;2023-12-22T09:21:51;6.70;99.90
5560;DHT22;2803;47.916;8.074;2023-12-22T09:24:18;6.50;99.90
5560;DHT22;2803;47.916;8.074;2023-12-22T09:26:45;6.50;99.90
5560;DHT22;2803;47.916;8.074;2023-12-22T09:29:12;6.50;99.90
5560;DHT22;2803;47.916;8.074;2023-12-22T09:31:39;6.70;99.90
5560;DHT22;2803;47.916;8.074;2023-12-22T09:34:06;7.30;99.90
5560;DHT22;2803;47.916;8.074;2023-12-22T09:36:33;7.20;99.90
5560;DHT22;2803;47.916;8.074;2023-12-22T09:38:59;7.10;99.90
5560;DHT22;2803;47.916;8.074;2023-12-22T09:41:26;7.30;99.90
5560;DHT22;2803;47.916;8.074;2023-12-22T09:43:56;7.10;99.90
5560;DHT22;2803;47.916;8.074;2023-12-22T09:46:25;6.70;99.90
5560;DHT22;2803;47.916;8.074;2023-12-22T09:48:53;7.00;99.90
5560;DHT22;2803;47.916;8.074;2023-12-22T09:51:21;7.00;99.90
5560;DHT22;2803;47.916;8.074;2023-12-22T09:53:49;7.20;99.90
5560;DHT22;2803;47.916;8.074;2023-12-22T09:56:17;7.70;99.90
5560;DHT22;2803;47.916;8.074;2023-12-22T09:58:45;7.60;99.90
5560;DHT22;2803;47.916;8.074;2023-12-22T10:01:14;7.40;99.90
5560;DHT22;2803;47.916;8.074;2023-12-22T10:03:42;7.60;99.90
5560;DHT22;2803;47.916;8.074;2023-12-22T10:06:09;7.60;99.90
5560;DHT22;2803;47.916;8.074;2023-12-22T10:08:36;7.70;99.90
5560;DHT22;2803;47.916;8.074;2023-12-22T10:11:03;7.70;99.90
5560;DHT22;2803;47.916;8.074;2023-12-22T10:13:31;7.90;99.90
5560;DHT22;2803;47.916;8.074;2023-12-22T10:16:00;7.80;99.90
5560;DHT22;2803;47.916;8.074;2023-12-22T10:18:27;7.90;99.90
5560;DHT22;2803;47.916;8.074;2023-12-22T10:20:55;7.60;99.90
5560;DHT22;2803;47.916;8.074;2023-12-22T10:23:21;7.60;99.90
5560;DHT22;2803;47.916;8.074;2023-12-22T10:25:48;7.70;99.90
5560;DHT22;2803;47.916;8.074;2023-12-22T10:28:16;7.50;99.90
5560;DHT22;2803;47.916;8.074;2023-12-22T10:30:48;7.70;99.90
5560;DHT22;2803;47.916;8.074;2023-12-22T10:33:15;7.30;99.90
5560;DHT22;2803;47.916;8.074;2023-12-22T10:35:42;7.50;99.90
5560;DHT22;2803;47.916;8.074;2023-12-22T10:38:10;7.70;99.90
5560;DHT22;2803;47.916;8.074;2023-12-22T10:40:37;7.90;99.90
5560;DHT22;2803;47.916;8.074;2023-12-22T10:43:04;7.90;99.90
5560;DHT22;2803;47.916;8.074;2023-12-22T10:45:31;7.90;99.90
5560;DHT22;2803;47.916;8.074;2023-12-22T10:47:57;7.90;99.90
5560;DHT22;2803;47.916;8.074;2023-12-22T10:50:25;7.70;99.90
5560;DHT22;2803;47.916;8.074;2023-12-22T10:52:51;7.70;99.90
5560;DHT22;2803;47.916;8.074;2023-12-22T10:55:20;7.70;99.90
5560;DHT22;2803;47.916;8.074;2023-12-22T10:57:47;7.90;99.90
5560;DHT22;2803;47.916;8.074;2023-12-22T11:00:15;7.60;99.90
5560;DHT22;2803;47.916;8.074;2023-12-22T11:02:43;7.30;99.90
5560;DHT22;2803;47.916;8.074;2023-12-22T11:05:11;7.40;99.90
5560;DHT22;2803;47.916;8.074;2023-12-22T11:07:38;7.10;99.90
5560;DHT22;2803;47.916;8.074;2023-12-22T11:10:06;7.50;99.90
5560;DHT22;2803;47.916;8.074;2023-12-22T11:12:35;7.10;99.90
5560;DHT22;2803;47.916;8.074;2023-12-22T11:15:03;7.40;99.90
5560;DHT22;2803;47.916;8.074;2023-12-22T11:17:32;7.70;99.90
5560;DHT22;2803;47.916;8.074;2023-12-22T11:19:59;7.90;99.90
5560;DHT22;2803;47.916;8.074;2023-12-22T11:22:26;8.00;99.90
5560;DHT22;2803;47.916;8.074;2023-12-22T11:24:53;7.80;99.90
5560;DHT22;2803;47.916;8.074;2023-12-22T11:27:23;7.70;99.90
5560;DHT22;2803;47.916;8.074;2023-12-22T11:29:53;7.60;99.90
5560;DHT22;2803;47.916;8.074;2023-12-22T11:32:21;7.50;99.90
5560;DHT22;2803;47.916;8.074;2023-12-22T11:34:48;7.40;99.90
5560;DHT22;2803;47.916;8.074;2023-12-22T11:37:16;7.50;99.90
5560;DHT22;2803;47.916;8.074;2023-12-22T11:39:43;7.40;99.90
5560;DHT22;2803;47.916;8.074;2023-12-22T11:42:14;7.40;99.90
5560;DHT22;2803;47.916;8.074;2023-12-22T11:44:42;7.60;99.90
5560;DHT22;2803;47.916;8.074;2023-12-22T11:47:11;7.60;99.90
5560;DHT22;2803;47.916;8.074;2023-12-22T11:49:38;7.40;99.90
5560;DHT22;2803;47.916;8.074;2023-12-22T11:52:14;7.50;99.90
5560;DHT22;2803;47.916;8.074;2023-12-22T11:54:45;7.40;99.90
5560;DHT22;2803;47.916;8.074;2023-12-22T11:57:30;7.30;99.90
5560;DHT22;2803;47.916;8.074;2023-12-22T11:59:58;7.50;99.90
5560;DHT22;2803;47.916;8.074;2023-12-22T12:02:29;7.30;99.90
5560;DHT22;2803;47.916;8.074;2023-12-22T12:04:58;7.60;99.90
5560;DHT22;2803;47.916;8.074;2023-12-22T12:07:41;7.50;99.90
5560;DHT22;2803;47.916;8.074;2023-12-22T12:10:10;7.40;99.90
5560;DHT22;2803;47.916;8.074;2023-12-22T12:12:37;7.40;99.90
5560;DHT22;2803;47.916;8.074;2023-12-22T12:15:09;7.40;99.90
5560;DHT22;2803;47.916;8.074;2023-12-22T12:17:41;7.60;99.90
5560;DHT22;2803;47.916;8.074;2023-12-22T12:20:09;7.60;99.90
5560;DHT22;2803;47.916;8.074;2023-12-22T12:22:36;7.70;99.90
5560;DHT22;2803;47.916;8.074;2023-12-22T12:25:07;7.70;99.90
5560;DHT22;2803;47.916;8.074;2023-12-22T12:27:35;7.90;99.90
5560;DHT22;2803;47.916;8.074;2023-12-22T12:30:08;7.70;99.90
5560;DHT22;2803;47.916;8.074;2023-12-22T12:32:37;7.80;99.90
5560;DHT22;2803;47.916;8.074;2023-12-22T12:35:05;7.90;99.90
5560;DHT22;2803;47.916;8.074;2023-12-22T12:37:32;7.80;99.90
5560;DHT22;2803;47.916;8.074;2023-12-22T12:39:59;7.90;99.90
5560;DHT22;2803;47.916;8.074;2023-12-22T12:42:30;7.90;99.90
5560;DHT22;2803;47.916;8.074;2023-12-22T12:44:57;7.80;99.90
5560;DHT22;2803;47.916;8.074;2023-12-22T12:47:23;7.80;99.90
5560;DHT22;2803;47.916;8.074;2023-12-22T12:49:56;8.10;99.90
5560;DHT22;2803;47.916;8.074;2023-12-22T12:52:25;8.10;99.90
5560;DHT22;2803;47.916;8.074;2023-12-22T12:54:53;8.30;99.90
5560;DHT22;2803;47.916;8.074;2023-12-22T12:57:21;7.90;99.90
5560;DHT22;2803;47.916;8.074;2023-12-22T12:59:49;8.00;99.90
5560;DHT22;2803;47.916;8.074;2023-12-22T13:02:16;7.90;99.90
5560;DHT22;2803;47.916;8.074;2023-12-22T13:04:43;7.90;99.90
5560;DHT22;2803;47.916;8.074;2023-12-22T13:07:10;8.00;99.90
5560;DHT22;2803;47.916;8.074;2023-12-22T13:09:39;8.10;99.90
5560;DHT22;2803;47.916;8.074;2023-12-22T13:12:07;8.10;99.90
5560;DHT22;2803;47.916;8.074;2023-12-22T13:14:34;8.10;99.90
5560;DHT22;2803;47.916;8.074;2023-12-22T13:17:01;8.10;99.90
5560;DHT22;2803;47.916;8.074;2023-12-22T13:19:28;8.10;99.90
5560;DHT22;2803;47.916;8.074;2023-12-22T13:21:55;8.40;99.90
5560;DHT22;2803;47.916;8.074;2023-12-22T13:24:22;8.50;99.90
5560;DHT22;2803;47.916;8.074;2023-12-22T13:27:00;8.20;99.90
5560;DHT22;2803;47.916;8.074;2023-12-22T13:29:29;8.30;99.90
5560;DHT22;2803;47.916;8.074;2023-12-22T13:31:56;8.50;99.90
5560;DHT22;2803;47.916;8.074;2023-12-22T13:34:23;8.30;99.90
5560;DHT22;2803;47.916;8.074;2023-12-22T13:36:50;8.30;99.90
5560;DHT22;2803;47.916;8.074;2023-12-22T13:39:17;8.40;99.90
5560;DHT22;2803;47.916;8.074;2023-12-22T13:41:44;8.40;99.90
5560;DHT22;2803;47.916;8.074;2023-12-22T13:44:13;8.50;99.90
5560;DHT22;2803;47.916;8.074;2023-12-22T13:46:40;8.10;99.90
5560;DHT22;2803;47.916;8.074;2023-12-22T13:49:08;8.30;99.90
5560;DHT22;2803;47.916;8.074;2023-12-22T13:51:39;8.20;99.90
5560;DHT22;2803;47.916;8.074;2023-12-22T13:54:06;8.10;99.90
5560;DHT22;2803;47.916;8.074;2023-12-22T13:56:33;8.10;99.90
5560;DHT22;2803;47.916;8.074;2023-12-22T13:59:02;8.20;99.90
5560;DHT22;2803;47.916;8.074;2023-12-22T14:01:30;8.10;99.90
5560;DHT22;2803;47.916;8.074;2023-12-22T14:03:56;8.20;99.90
5560;DHT22;2803;47.916;8.074;2023-12-22T14:06:24;8.00;99.90
5560;DHT22;2803;47.916;8.074;2023-12-22T14:08:50;8.00;99.90
5560;DHT22;2803;47.916;8.074;2023-12-22T14:11:17;7.90;99.90
5560;DHT22;2803;47.916;8.074;2023-12-22T14:13:44;8.30;99.90
5560;DHT22;2803;47.916;8.074;2023-12-22T14:16:10;8.00;99.90
5560;DHT22;2803;47.916;8.074;2023-12-22T14:18:38;8.00;99.90
5560;DHT22;2803;47.916;8.074;2023-12-22T14:21:05;8.00;99.90
5560;DHT22;2803;47.916;8.074;2023-12-22T14:23:32;8.00;99.90
5560;DHT22;2803;47.916;8.074;2023-12-22T14:25:58;7.90;99.90
5560;DHT22;2803;47.916;8.074;2023-12-22T14:28:25;8.00;99.90
5560;DHT22;2803;47.916;8.074;2023-12-22T14:30:53;8.30;99.90
5560;DHT22;2803;47.916;8.074;2023-12-22T14:33:19;8.50;99.90
5560;DHT22;2803;47.916;8.074;2023-12-22T14:35:47;8.10;99.90
5560;DHT22;2803;47.916;8.074;2023-12-22T14:38:14;7.90;99.90
5560;DHT22;2803;47.916;8.074;2023-12-22T14:40:40;8.30;99.90
5560;DHT22;2803;47.916;8.074;2023-12-22T14:43:07;8.40;99.90
5560;DHT22;2803;47.916;8.074;2023-12-22T14:45:33;8.20;99.90
5560;DHT22;2803;47.916;8.074;2023-12-22T14:48:00;8.20;99.90
5560;DHT22;2803;47.916;8.074;2023-12-22T14:50:26;8.40;99.90
5560;DHT22;2803;47.916;8.074;2023-12-22T14:52:54;8.40;99.90
5560;DHT22;2803;47.916;8.074;2023-12-22T14:55:21;8.40;99.90
5560;DHT22;2803;47.916;8.074;2023-12-22T14:57:47;8.30;99.90
5560;DHT22;2803;47.916;8.074;2023-12-22T15:00:15;8.20;99.90
5560;DHT22;2803;47.916;8.074;2023-12-22T15:02:41;8.40;99.90
5560;DHT22;2803;47.916;8.074;2023-12-22T15:05:08;8.20;99.90
5560;DHT22;2803;47.916;8.074;2023-12-22T15:07:35;8.40;99.90
5560;DHT22;2803;47.916;8.074;2023-12-22T15:10:03;8.50;99.90
5560;DHT22;2803;47.916;8.074;2023-12-22T15:12:31;8.40;99.90
5560;DHT22;2803;47.916;8.074;2023-12-22T15:15:01;8.20;99.90
5560;DHT22;2803;47.916;8.074;2023-12-22T15:17:29;8.10;99.90
5560;DHT22;2803;47.916;8.074;2023-12-22T15:19:55;8.30;99.90
5560;DHT22;2803;47.916;8.074;2023-12-22T15:22:22;8.30;99.90
5560;DHT22;2803;47.916;8.074;2023-12-22T15:24:49;8.30;99.90
5560;DHT22;2803;47.916;8.074;2023-12-22T15:27:18;8.30;99.90
5560;DHT22;2803;47.916;8.074;2023-12-22T15:29:45;8.40;99.90
5560;DHT22;2803;47.916;8.074;2023-12-22T15:32:12;8.30;99.90
5560;DHT22;2803;47.916;8.074;2023-12-22T15:34:41;8.30;99.90
5560;DHT22;2803;47.916;8.074;2023-12-22T15:37:07;8.20;99.90
5560;DHT22;2803;47.916;8.074;2023-12-22T15:39:34;8.00;99.90
5560;DHT22;2803;47.916;8.074;2023-12-22T15:42:01;8.00;99.90
5560;DHT22;2803;47.916;8.074;2023-12-22T15:44:28;8.10;99.90
5560;DHT22;2803;47.916;8.074;2023-12-22T15:46:55;8.10;99.90
5560;DHT22;2803;47.916;8.074;2023-12-22T15:49:22;8.40;99.90
5560;DHT22;2803;47.916;8.074;2023-12-22T15:51:48;8.10;99.90
5560;DHT22;2803;47.916;8.074;2023-12-22T15:54:15;8.30;99.90
5560;DHT22;2803;47.916;8.074;2023-12-22T15:56:42;8.30;99.90
5560;DHT22;2803;47.916;8.074;2023-12-22T15:59:10;8.30;99.90
5560;DHT22;2803;47.916;8.074;2023-12-22T16:01:43;8.30;99.90
5560;DHT22;2803;47.916;8.074;2023-12-22T16:04:10;8.40;99.90
5560;DHT22;2803;47.916;8.074;2023-12-22T16:06:37;8.50;99.90
5560;DHT22;2803;47.916;8.074;2023-12-22T16:09:03;8.50;99.90
5560;DHT22;2803;47.916;8.074;2023-12-22T16:11:30;8.50;99.90
5560;DHT22;2803;47.916;8.074;2023-12-22T16:13:57;8.40;99.90
5560;DHT22;2803;47.916;8.074;2023-12-22T16:16:24;8.60;99.90
5560;DHT22;2803;47.916;8.074;2023-12-22T16:18:52;8.50;99.90